Ferryhill, United Kingdom
Current Conditions -  °F | °C
As of 12:50 PM on Friday 28 Nov 2014 (Local Time) from EGNV Reporting Station
Haze Haze  
Wind Chill: 50°   Ceiling: 3000
Heat Index: 50°   Visibility: 3mi
Dew Point: 48°   Wind: 8mph
Humidity: 94%   Direction: 60°ENE
Pressure: 29.74"   Gusts: NA
Location:  54.68°N, 1.55°W
Report Text: EGNV 281250Z 06007KT 5000 BR SCT013 BKN030 10/09 Q1007
Loading
Personal Weather Stations






























Interactive Weather Map New forecast layout! Learn more

10-Day Weather Forecast

Advertisements
Track Severe Weather on mobile